< Cyclone 199505 1995 Season Cyclone 199601 >
Cyclone 199506 (AGNES)
General InformationTrack Information on Google MapsDetailed Wind InformationList of All Images || ResourceGoogle EarthGE AnimationAtom FeedGeoJSON
Detalied Best Track (Time Zone = UTC)
Year Month Day Hour Lat. Long. Pressure (hPa) Wind (kt) Class Image Chart
1995 4 16 18 -11.2 146.7 995 35 3 Image --
1995 4 17 00 -11.7 147.4 990 41 3 Image --
1995 4 17 06 -12.0 147.6 985 51 4 Image --
1995 4 17 12 -12.2 147.8 975 60 4 Image --
1995 4 17 18 -12.4 147.9 975 60 4 Image --
1995 4 18 00 -12.7 148.1 970 64 5 Image --
1995 4 18 06 -12.9 148.1 960 80 5 Image --
1995 4 18 12 -13.0 147.8 945 89 5 Image --
1995 4 18 18 -12.9 147.7 945 89 5 Image --
1995 4 19 00 -12.7 147.6 945 89 5 Image --
1995 4 19 06 -12.8 147.6 945 89 5 Image --
1995 4 19 12 -13.0 147.6 955 80 5 Image --
1995 4 19 18 -13.0 147.6 955 80 5 Image --
1995 4 20 00 -13.0 147.6 970 70 5 Image --
1995 4 20 06 -13.0 147.6 970 70 5 Image --
1995 4 20 12 -13.0 147.6 970 70 5 Image --
1995 4 20 18 -12.5 147.7 975 60 4 Image --
1995 4 21 00 -12.0 147.8 980 54 4 Image --
1995 4 21 06 -11.7 147.9 985 51 4 Image --
1995 4 21 12 -11.5 148.1 985 51 4 Image --
1995 4 21 18 -11.0 148.1 985 51 4 Image --
1995 4 22 00 -10.7 147.8 985 51 4 Image --
1995 4 22 06 -10.4 147.5 990 41 3 Image --
1995 4 22 12 -10.0 147.1 995 35 3 Image --
< Cyclone 199505 1995 Season Cyclone 199601 >

Help